createdAt,value
2023-07-24T00:01:49.772Z,25.38
2023-07-24T00:04:16.287Z,25.39
2023-07-24T00:06:42.778Z,25.39
2023-07-24T00:09:09.365Z,25.36
2023-07-24T00:11:35.898Z,25.28
2023-07-24T00:14:02.365Z,25.31
2023-07-24T00:16:29.147Z,25.34
2023-07-24T00:18:55.843Z,25.34
2023-07-24T00:21:22.303Z,25.36
2023-07-24T00:23:48.784Z,25.34
2023-07-24T00:26:15.555Z,25.32
2023-07-24T00:28:42.082Z,25.34
2023-07-24T00:31:08.687Z,25.34
2023-07-24T00:33:35.231Z,25.32
2023-07-24T00:36:01.717Z,25.32
2023-07-24T00:38:28.252Z,25.31
2023-07-24T00:40:55.054Z,25.31
2023-07-24T00:43:21.634Z,25.33
2023-07-24T00:45:48.679Z,25.32
2023-07-24T00:48:15.445Z,25.31
2023-07-24T00:50:43.153Z,25.31
2023-07-24T00:53:10.041Z,25.29
2023-07-24T00:55:36.813Z,25.29
2023-07-24T00:58:04.168Z,25.29
2023-07-24T01:00:31.208Z,25.29
2023-07-24T01:02:57.913Z,25.29
2023-07-24T01:05:26.005Z,25.27
2023-07-24T01:07:53.184Z,25.25
2023-07-24T01:10:19.779Z,25.24
2023-07-24T01:12:48.958Z,25.25
2023-07-24T01:15:36.046Z,25.26
2023-07-24T01:18:12.220Z,25.25
2023-07-24T01:20:41.221Z,25.20
2023-07-24T01:23:07.960Z,25.19
2023-07-24T01:25:39.087Z,25.21
2023-07-24T01:28:09.098Z,25.22
2023-07-24T01:30:35.722Z,25.25
2023-07-24T01:33:02.860Z,25.27
2023-07-24T01:35:30.577Z,25.27
2023-07-24T01:37:57.602Z,25.26
2023-07-24T01:40:24.413Z,25.26
2023-07-24T01:42:51.747Z,25.26
2023-07-24T01:45:18.207Z,25.29
2023-07-24T01:47:44.958Z,25.31
2023-07-24T01:50:11.647Z,25.29
2023-07-24T01:52:38.111Z,25.30
2023-07-24T01:55:04.836Z,25.31
2023-07-24T01:57:31.432Z,25.31
2023-07-24T01:59:57.920Z,25.32
2023-07-24T02:02:24.425Z,25.30
2023-07-24T02:04:50.925Z,25.31
2023-07-24T02:07:17.370Z,25.30
2023-07-24T02:09:44.021Z,25.31
2023-07-24T02:12:10.517Z,25.32
2023-07-24T02:14:37.273Z,25.32
2023-07-24T02:17:03.902Z,25.33
2023-07-24T02:19:30.359Z,25.32
2023-07-24T02:21:56.923Z,25.32
2023-07-24T02:24:23.787Z,25.33
2023-07-24T02:26:50.513Z,25.33
2023-07-24T02:29:17.021Z,25.34
2023-07-24T02:31:44.330Z,25.33
2023-07-24T02:34:10.870Z,25.30
2023-07-24T02:36:37.655Z,25.30
2023-07-24T02:39:04.393Z,25.30
2023-07-24T02:41:30.940Z,25.31
2023-07-24T02:43:57.766Z,25.30
2023-07-24T02:46:25.884Z,25.32
2023-07-24T02:48:52.866Z,25.32
2023-07-24T02:51:19.323Z,25.30
2023-07-24T02:53:45.827Z,25.32
2023-07-24T02:56:12.290Z,25.33
2023-07-24T02:58:38.783Z,25.34
2023-07-24T03:01:07.585Z,25.31
2023-07-24T03:03:34.550Z,25.33
2023-07-24T03:06:01.255Z,25.36
2023-07-24T03:08:27.968Z,25.38
2023-07-24T03:10:54.460Z,25.41
2023-07-24T03:13:21.217Z,25.41
2023-07-24T03:15:55.042Z,25.44
2023-07-24T03:18:21.762Z,25.46
2023-07-24T03:20:48.257Z,25.44
2023-07-24T03:23:14.804Z,25.44
2023-07-24T03:25:41.422Z,25.44
2023-07-24T03:28:08.146Z,25.44
2023-07-24T03:30:34.743Z,25.45
2023-07-24T03:33:02.762Z,25.45
2023-07-24T03:35:29.365Z,25.45
2023-07-24T03:37:56.121Z,25.46
2023-07-24T03:40:22.583Z,25.47
2023-07-24T03:42:49.130Z,25.47
2023-07-24T03:45:15.955Z,25.48
2023-07-24T03:47:43.185Z,25.48
2023-07-24T03:50:10.014Z,25.49
2023-07-24T03:52:36.602Z,25.49
2023-07-24T03:55:03.375Z,25.49
2023-07-24T03:57:29.884Z,25.50
2023-07-24T03:59:56.343Z,25.49
2023-07-24T04:02:22.918Z,25.48
2023-07-24T04:04:49.668Z,25.49
2023-07-24T04:07:16.141Z,25.49
2023-07-24T04:09:42.663Z,25.52
2023-07-24T04:12:09.255Z,25.52
2023-07-24T04:14:35.857Z,25.52
2023-07-24T04:17:02.631Z,25.53
2023-07-24T04:19:29.367Z,25.53
2023-07-24T04:21:55.887Z,25.53
2023-07-24T04:24:22.342Z,25.55
2023-07-24T04:26:48.761Z,25.54
2023-07-24T04:29:15.210Z,25.54
2023-07-24T04:31:41.692Z,25.56
2023-07-24T04:34:08.434Z,25.57
2023-07-24T04:36:35.042Z,25.56
2023-07-24T04:39:01.522Z,25.56
2023-07-24T04:41:27.971Z,25.57
2023-07-24T04:43:54.468Z,25.57
2023-07-24T04:46:20.935Z,25.56
2023-07-24T04:48:47.717Z,25.55
2023-07-24T04:51:14.177Z,25.55
2023-07-24T04:53:40.966Z,25.56
2023-07-24T04:56:07.828Z,25.56
2023-07-24T04:58:34.317Z,25.56
2023-07-24T05:01:03.437Z,25.57
2023-07-24T05:03:29.878Z,25.57
2023-07-24T05:05:57.497Z,25.58
2023-07-24T05:08:24.052Z,25.59
2023-07-24T05:11:00.427Z,25.59
2023-07-24T05:13:27.451Z,25.58
2023-07-24T05:15:54.237Z,25.61
2023-07-24T05:18:21.026Z,25.59
2023-07-24T05:20:54.303Z,25.61
2023-07-24T05:23:20.734Z,25.61
2023-07-24T05:25:47.403Z,25.62
2023-07-24T05:28:13.797Z,25.62
2023-07-24T05:30:40.261Z,25.62
2023-07-24T05:33:06.860Z,25.63
2023-07-24T05:35:33.439Z,25.64
2023-07-24T05:38:00.033Z,25.63
2023-07-24T05:40:26.788Z,25.64
2023-07-24T05:42:55.573Z,25.64
2023-07-24T05:45:21.986Z,25.67
2023-07-24T05:47:48.476Z,25.66
2023-07-24T05:50:15.122Z,25.66
2023-07-24T05:52:42.086Z,25.68
2023-07-24T05:55:09.332Z,25.68
2023-07-24T05:57:36.125Z,25.68
2023-07-24T06:00:03.687Z,25.69
2023-07-24T06:02:30.206Z,25.69
2023-07-24T06:04:56.706Z,25.71
2023-07-24T06:07:23.251Z,25.72
2023-07-24T06:09:49.896Z,25.72
2023-07-24T06:12:19.099Z,25.73
2023-07-24T06:14:47.959Z,25.73
2023-07-24T06:17:17.747Z,25.73
2023-07-24T06:19:47.385Z,25.74
2023-07-24T06:22:17.185Z,25.74
2023-07-24T06:24:43.784Z,25.75
2023-07-24T06:27:10.253Z,25.76
2023-07-24T06:29:39.081Z,25.77
2023-07-24T06:32:06.843Z,25.76
2023-07-24T06:34:33.313Z,25.77
2023-07-24T06:37:09.360Z,25.77
2023-07-24T06:39:44.689Z,25.78
2023-07-24T06:42:11.199Z,25.79
2023-07-24T06:44:37.697Z,25.80
2023-07-24T06:47:04.294Z,25.82
2023-07-24T06:49:30.729Z,25.82
2023-07-24T06:51:57.112Z,25.83
2023-07-24T06:54:25.838Z,25.85
2023-07-24T06:56:56.030Z,25.88
2023-07-24T06:59:30.826Z,25.91
2023-07-24T07:01:59.544Z,25.90
2023-07-24T07:04:26.049Z,25.92
2023-07-24T07:06:52.521Z,25.90
2023-07-24T07:09:19.293Z,25.92
2023-07-24T07:11:48.729Z,25.92
2023-07-24T07:14:15.353Z,25.92
2023-07-24T07:16:47.400Z,25.93
2023-07-24T07:19:16.080Z,25.93
2023-07-24T07:21:42.880Z,25.93
2023-07-24T07:24:09.475Z,25.95
2023-07-24T07:26:36.018Z,25.97
2023-07-24T07:29:02.570Z,25.96
2023-07-24T07:31:29.200Z,25.97
2023-07-24T07:33:55.896Z,25.98
2023-07-24T07:36:23.950Z,25.98
2023-07-24T07:38:50.536Z,25.99
2023-07-24T07:41:19.938Z,25.99
2023-07-24T07:44:03.688Z,26.00
2023-07-24T07:46:30.658Z,26.02
2023-07-24T07:48:57.398Z,26.02
2023-07-24T07:51:26.736Z,26.02
2023-07-24T07:53:53.536Z,26.02
2023-07-24T07:56:20.028Z,26.04
2023-07-24T07:58:46.773Z,26.05
2023-07-24T08:01:13.342Z,26.06
2023-07-24T08:03:40.061Z,26.06
2023-07-24T08:06:07.259Z,26.05
2023-07-24T08:08:34.069Z,26.06
2023-07-24T08:11:04.729Z,26.06
2023-07-24T08:13:31.484Z,26.05
2023-07-24T08:15:58.128Z,26.07
2023-07-24T08:18:24.739Z,26.05
2023-07-24T08:20:51.180Z,26.06
2023-07-24T08:23:17.887Z,26.08
2023-07-24T08:25:53.930Z,26.08
2023-07-24T08:28:20.735Z,26.07
2023-07-24T08:30:48.461Z,26.07
2023-07-24T08:33:14.998Z,26.07
2023-07-24T08:35:41.429Z,26.07
2023-07-24T08:38:07.917Z,26.08
2023-07-24T08:40:34.589Z,26.09
2023-07-24T08:43:01.188Z,26.08
2023-07-24T08:45:27.993Z,26.09
2023-07-24T08:47:54.888Z,26.10
2023-07-24T08:50:21.652Z,26.10
2023-07-24T08:52:48.221Z,26.10
2023-07-24T08:55:14.744Z,26.09
2023-07-24T08:57:41.632Z,26.10
2023-07-24T09:00:08.323Z,26.11
2023-07-24T09:02:36.068Z,26.11
2023-07-24T09:05:03.002Z,26.10
2023-07-24T09:07:30.968Z,26.10
2023-07-24T09:09:57.513Z,26.09
2023-07-24T09:12:24.995Z,26.09
2023-07-24T09:15:01.648Z,26.11
2023-07-24T09:17:28.511Z,26.11
2023-07-24T09:19:59.180Z,26.11
2023-07-24T09:22:27.883Z,26.11
2023-07-24T09:24:55.495Z,26.12
2023-07-24T09:27:25.316Z,26.12
2023-07-24T09:29:51.818Z,26.13
2023-07-24T09:32:22.781Z,26.16
2023-07-24T09:34:51.997Z,26.18
2023-07-24T09:37:25.888Z,26.17
2023-07-24T09:39:54.124Z,26.17
2023-07-24T09:42:28.556Z,26.22
2023-07-24T09:44:55.278Z,26.22
2023-07-24T09:49:52.679Z,26.19
2023-07-24T09:52:19.715Z,26.21
2023-07-24T09:55:04.861Z,26.20
2023-07-24T09:57:32.001Z,26.22
2023-07-24T09:59:58.865Z,26.23
2023-07-24T10:02:26.213Z,26.20
2023-07-24T10:04:53.180Z,26.18
2023-07-24T10:07:23.017Z,26.17
2023-07-24T10:09:51.264Z,26.19
2023-07-24T10:12:19.160Z,26.18
2023-07-24T10:14:46.799Z,26.19
2023-07-24T10:17:13.698Z,26.19
2023-07-24T10:19:41.264Z,26.19
2023-07-24T10:22:08.091Z,26.19
2023-07-24T10:24:41.544Z,26.19
2023-07-24T10:27:09.068Z,26.19
2023-07-24T10:29:36.989Z,26.19
2023-07-24T10:32:03.845Z,26.18
2023-07-24T10:34:40.321Z,26.20
2023-07-24T10:37:09.138Z,26.20
2023-07-24T10:39:40.571Z,26.19
2023-07-24T10:42:08.163Z,26.19
2023-07-24T10:44:35.868Z,26.19
2023-07-24T10:47:02.744Z,26.20
2023-07-24T10:49:29.330Z,26.19
2023-07-24T10:51:56.802Z,26.21
2023-07-24T10:54:23.405Z,26.21
2023-07-24T10:56:51.949Z,26.20
2023-07-24T10:59:18.688Z,26.23
2023-07-24T11:01:45.152Z,26.22
2023-07-24T11:04:16.029Z,26.23
2023-07-24T11:06:42.645Z,26.22
2023-07-24T11:09:09.098Z,26.24
2023-07-24T11:11:38.447Z,26.23
2023-07-24T11:14:05.191Z,26.24
2023-07-24T11:16:33.344Z,26.25
2023-07-24T11:19:00.125Z,26.25
2023-07-24T11:21:26.966Z,26.25
2023-07-24T11:23:54.695Z,26.26
2023-07-24T11:26:22.258Z,26.26
2023-07-24T11:28:49.447Z,26.25
2023-07-24T11:31:16.429Z,26.26
2023-07-24T11:33:44.212Z,26.26
2023-07-24T11:36:10.857Z,26.27
2023-07-24T11:38:39.934Z,26.29
2023-07-24T11:41:06.726Z,26.30
2023-07-24T11:43:33.585Z,26.30
2023-07-24T11:46:00.095Z,26.29
2023-07-24T11:48:26.721Z,26.28
2023-07-24T11:50:56.770Z,26.28
2023-07-24T11:53:24.352Z,26.27
2023-07-24T11:55:51.788Z,26.25
2023-07-24T11:58:19.044Z,26.26
2023-07-24T12:00:46.867Z,26.24
2023-07-24T12:03:13.750Z,26.24
2023-07-24T12:05:41.293Z,26.24
2023-07-24T12:08:08.282Z,26.24
2023-07-24T12:10:36.961Z,26.24
2023-07-24T12:13:03.728Z,26.24
2023-07-24T12:15:30.249Z,26.24
2023-07-24T12:17:57.955Z,26.23
2023-07-24T12:20:24.729Z,26.24
2023-07-24T12:22:51.505Z,26.21
2023-07-24T12:25:18.373Z,26.21
2023-07-24T12:27:44.857Z,26.20
2023-07-24T12:30:11.736Z,26.21
2023-07-24T12:32:38.342Z,26.20
2023-07-24T12:35:05.184Z,26.21
2023-07-24T12:37:32.023Z,26.20
2023-07-24T12:39:58.589Z,26.19
2023-07-24T12:42:25.095Z,26.18
2023-07-24T12:44:51.580Z,26.19
2023-07-24T12:47:18.457Z,26.18
2023-07-24T12:49:44.946Z,26.19
2023-07-24T12:52:12.147Z,26.19
2023-07-24T12:54:59.090Z,26.19
2023-07-24T12:57:25.065Z,26.19
2023-07-24T12:59:51.540Z,26.19
2023-07-24T13:02:18.038Z,26.20
2023-07-24T13:04:44.797Z,26.19
2023-07-24T13:07:11.433Z,26.20
2023-07-24T13:09:38.273Z,26.21
2023-07-24T13:12:05.142Z,26.21
2023-07-24T13:14:31.595Z,26.22
2023-07-24T13:16:58.307Z,26.22
2023-07-24T13:19:24.865Z,26.22
2023-07-24T13:21:51.492Z,26.22
2023-07-24T13:24:18.118Z,26.23
2023-07-24T13:26:45.043Z,26.23
2023-07-24T13:29:11.671Z,26.23
2023-07-24T13:31:38.288Z,26.23
2023-07-24T13:34:04.778Z,26.25
2023-07-24T13:36:31.673Z,26.24
2023-07-24T13:38:58.274Z,26.25
2023-07-24T13:41:24.833Z,26.23
2023-07-24T13:43:51.472Z,26.23
2023-07-24T13:46:18.145Z,26.25
2023-07-24T13:48:44.642Z,26.25
2023-07-24T13:51:12.060Z,26.25
2023-07-24T13:53:38.947Z,26.25
2023-07-24T13:56:05.951Z,26.25
2023-07-24T13:58:32.407Z,26.25
2023-07-24T14:00:58.938Z,26.26
2023-07-24T14:03:30.205Z,26.25
2023-07-24T14:05:57.833Z,26.25
2023-07-24T14:08:24.477Z,26.25
2023-07-24T14:10:51.300Z,26.25
2023-07-24T14:13:18.099Z,26.25
2023-07-24T14:15:44.564Z,26.27
2023-07-24T14:18:11.091Z,26.26
2023-07-24T14:20:38.894Z,26.28
2023-07-24T14:23:05.441Z,26.29
2023-07-24T14:25:31.981Z,26.29
2023-07-24T14:27:58.468Z,26.31
2023-07-24T14:30:25.007Z,26.31
2023-07-24T14:32:51.873Z,26.30
2023-07-24T14:35:19.651Z,26.30
2023-07-24T14:37:46.106Z,26.31
2023-07-24T14:40:15.743Z,26.33
2023-07-24T14:42:42.341Z,26.34
2023-07-24T14:45:09.128Z,26.35
2023-07-24T14:47:35.987Z,26.35
2023-07-24T14:50:02.657Z,26.33
2023-07-24T14:52:29.202Z,26.35
2023-07-24T14:54:55.937Z,26.37
2023-07-24T14:57:25.985Z,26.37
2023-07-24T15:00:05.518Z,26.37
2023-07-24T15:02:33.803Z,26.35
2023-07-24T15:05:00.702Z,26.37
2023-07-24T15:08:16.992Z,26.37
2023-07-24T15:10:17.535Z,26.38
2023-07-24T15:16:44.652Z,26.38
2023-07-24T15:34:22.802Z,26.43
2023-07-24T15:36:49.270Z,26.44
2023-07-24T15:42:49.617Z,26.45
2023-07-24T15:45:16.074Z,26.45
2023-07-24T15:47:42.620Z,26.45
2023-07-24T15:50:09.305Z,26.45
2023-07-24T15:52:35.883Z,26.46
2023-07-24T15:55:02.462Z,26.47
2023-07-24T15:57:28.988Z,26.47
2023-07-24T16:00:28.959Z,26.47
2023-07-24T16:02:55.631Z,26.47
2023-07-24T16:05:22.798Z,26.48
2023-07-24T16:07:50.291Z,26.48
2023-07-24T16:10:19.774Z,26.48
2023-07-24T16:12:46.282Z,26.47
2023-07-24T16:18:10.280Z,26.45
2023-07-24T16:20:36.797Z,26.45
2023-07-24T16:23:03.535Z,26.46
2023-07-24T16:25:30.040Z,26.46
2023-07-24T16:27:56.598Z,26.46
2023-07-24T16:30:52.185Z,26.45
2023-07-24T16:35:49.007Z,26.45
2023-07-24T16:38:16.802Z,26.44
2023-07-24T16:40:43.320Z,26.44
2023-07-24T16:43:09.791Z,26.43
2023-07-24T16:45:37.134Z,26.43
2023-07-24T16:48:04.599Z,26.45
2023-07-24T16:50:31.257Z,26.45
2023-07-24T16:52:57.677Z,26.44
2023-07-24T16:55:24.212Z,26.44
2023-07-24T16:57:50.648Z,26.44
2023-07-24T17:00:17.458Z,26.43
2023-07-24T17:02:44.063Z,26.42
2023-07-24T17:05:10.883Z,26.41
2023-07-24T17:07:37.303Z,26.40
2023-07-24T17:10:04.100Z,26.40
2023-07-24T17:12:30.580Z,26.40
2023-07-24T17:14:57.295Z,26.39
2023-07-24T17:17:23.891Z,26.39
2023-07-24T17:19:50.723Z,26.37
2023-07-24T17:22:17.522Z,26.35
2023-07-24T17:24:44.150Z,26.36
2023-07-24T17:27:10.794Z,26.35
2023-07-24T17:29:37.295Z,26.34
2023-07-24T17:32:03.939Z,26.35
2023-07-24T17:34:30.375Z,26.33
2023-07-24T17:36:56.812Z,26.33
2023-07-24T17:39:23.318Z,26.32
2023-07-24T17:41:50.079Z,26.31
2023-07-24T17:44:16.626Z,26.32
2023-07-24T17:46:43.280Z,26.30
2023-07-24T17:49:09.826Z,26.30
2023-07-24T17:51:36.338Z,26.29
2023-07-24T17:54:03.036Z,26.28
2023-07-24T17:56:29.446Z,26.29
2023-07-24T17:58:55.921Z,26.28
2023-07-24T18:01:22.945Z,26.26
2023-07-24T18:03:49.612Z,26.26
2023-07-24T18:06:16.436Z,26.25
2023-07-24T18:08:43.177Z,26.24
2023-07-24T18:11:09.934Z,26.22
2023-07-24T18:13:36.408Z,26.21
2023-07-24T18:16:02.960Z,26.20
2023-07-24T18:18:29.405Z,26.18
2023-07-24T18:20:55.905Z,26.19
2023-07-24T18:23:22.406Z,26.19
2023-07-24T18:25:48.858Z,26.17
2023-07-24T18:28:17.239Z,26.17
2023-07-24T18:30:43.634Z,26.14
2023-07-24T18:33:11.323Z,26.12
2023-07-24T18:35:37.772Z,26.05
2023-07-24T18:38:04.271Z,26.05
2023-07-24T18:40:31.189Z,26.07
2023-07-24T18:43:28.821Z,26.10
2023-07-24T18:46:20.817Z,26.10
2023-07-24T18:48:51.035Z,26.11
2023-07-24T18:51:21.001Z,26.12
2023-07-24T18:53:48.954Z,26.14
2023-07-24T18:56:15.757Z,26.11
2023-07-24T18:58:44.905Z,26.09
2023-07-24T19:01:11.854Z,26.08
2023-07-24T19:03:38.682Z,26.05
2023-07-24T19:06:09.145Z,26.02
2023-07-24T19:08:35.922Z,25.97
2023-07-24T19:11:03.204Z,25.95
2023-07-24T19:13:32.665Z,25.92
2023-07-24T19:16:00.548Z,25.87
2023-07-24T19:18:27.128Z,25.84
2023-07-24T19:20:53.626Z,25.81
2023-07-24T19:23:20.151Z,25.78
2023-07-24T19:25:46.655Z,25.78
2023-07-24T19:28:13.059Z,25.78
2023-07-24T19:30:39.518Z,25.78
2023-07-24T19:33:06.119Z,25.75
2023-07-24T19:35:32.824Z,25.78
2023-07-24T19:37:59.311Z,25.83
2023-07-24T19:40:25.741Z,25.86
2023-07-24T19:42:52.588Z,25.87
2023-07-24T19:45:19.133Z,25.86
2023-07-24T19:47:45.775Z,25.85
2023-07-24T19:50:12.283Z,25.83
2023-07-24T19:52:38.855Z,25.86
2023-07-24T19:55:05.671Z,25.89
2023-07-24T19:57:32.730Z,25.90
2023-07-24T19:59:59.207Z,25.91
2023-07-24T20:02:26.088Z,25.92
2023-07-24T20:04:52.598Z,25.93
2023-07-24T20:07:21.360Z,25.94
2023-07-24T20:09:53.566Z,25.94
2023-07-24T20:12:26.303Z,25.94
2023-07-24T20:14:52.951Z,25.96
2023-07-24T20:17:19.532Z,25.96
2023-07-24T20:19:45.966Z,25.96
2023-07-24T20:22:12.372Z,25.96
2023-07-24T20:24:38.906Z,25.95
2023-07-24T20:27:05.776Z,25.95
2023-07-24T20:29:32.378Z,25.96
2023-07-24T20:31:58.815Z,25.95
2023-07-24T20:34:25.379Z,25.96
2023-07-24T20:36:51.824Z,25.96
2023-07-24T20:39:18.661Z,25.96
2023-07-24T20:41:45.584Z,25.96
2023-07-24T20:44:12.115Z,25.96
2023-07-24T20:46:38.884Z,25.97
2023-07-24T20:49:05.415Z,25.97
2023-07-24T20:51:32.556Z,25.96
2023-07-24T20:54:00.201Z,25.97
2023-07-24T20:56:26.852Z,25.96
2023-07-24T20:58:53.404Z,25.96
2023-07-24T21:01:22.806Z,25.97
2023-07-24T21:03:51.770Z,25.97
2023-07-24T21:06:18.507Z,25.96
2023-07-24T21:08:45.023Z,25.95
2023-07-24T21:11:11.513Z,25.95
2023-07-24T21:13:38.000Z,25.96
2023-07-24T21:16:04.639Z,25.95
2023-07-24T21:18:31.227Z,25.95
2023-07-24T21:20:59.964Z,25.95
2023-07-24T21:23:27.908Z,25.93
2023-07-24T21:25:55.355Z,25.93
2023-07-24T21:28:22.779Z,25.91
2023-07-24T21:30:49.477Z,25.91
2023-07-24T21:33:16.709Z,25.89
2023-07-24T21:35:43.316Z,25.90
2023-07-24T21:38:11.287Z,25.88
2023-07-24T21:40:37.705Z,25.82
2023-07-24T21:43:04.364Z,25.79
2023-07-24T21:45:30.859Z,25.78
2023-07-24T21:47:57.380Z,25.79
2023-07-24T21:50:23.880Z,25.80
2023-07-24T21:52:50.390Z,25.81
2023-07-24T21:55:17.123Z,25.82
2023-07-24T21:57:43.669Z,25.82
2023-07-24T22:00:10.460Z,25.79
2023-07-24T22:02:37.151Z,25.78
2023-07-24T22:05:03.803Z,25.78
2023-07-24T22:07:32.066Z,25.79
2023-07-24T22:09:58.660Z,25.79
2023-07-24T22:12:25.101Z,25.79
2023-07-24T22:14:51.631Z,25.80
2023-07-24T22:17:18.078Z,25.81
2023-07-24T22:19:44.482Z,25.82
2023-07-24T22:22:10.941Z,25.83
2023-07-24T22:24:37.918Z,25.83
2023-07-24T22:27:04.845Z,25.83
2023-07-24T22:29:31.301Z,25.82
2023-07-24T22:31:57.802Z,25.83
2023-07-24T22:34:24.272Z,25.80
2023-07-24T22:36:50.677Z,25.80
2023-07-24T22:39:17.422Z,25.78
2023-07-24T22:41:44.789Z,25.81
2023-07-24T22:44:11.331Z,25.80
2023-07-24T22:46:37.815Z,25.80
2023-07-24T22:49:04.407Z,25.81
2023-07-24T22:51:31.035Z,25.79
2023-07-24T22:53:57.943Z,25.78
2023-07-24T22:56:24.421Z,25.80
2023-07-24T22:59:02.834Z,25.81
2023-07-24T23:01:30.059Z,25.81
2023-07-24T23:03:57.631Z,25.81
2023-07-24T23:06:24.280Z,25.82
2023-07-24T23:08:50.798Z,25.81
2023-07-24T23:11:19.199Z,25.80
2023-07-24T23:13:45.643Z,25.81
2023-07-24T23:16:12.633Z,25.81
2023-07-24T23:18:39.461Z,25.81
2023-07-24T23:21:06.634Z,25.81
2023-07-24T23:23:33.035Z,25.80
2023-07-24T23:26:03.312Z,25.79
2023-07-24T23:28:30.133Z,25.80
2023-07-24T23:30:56.736Z,25.81
2023-07-24T23:33:23.353Z,25.81
2023-07-24T23:35:51.777Z,25.81
2023-07-24T23:38:18.229Z,25.80
2023-07-24T23:40:44.685Z,25.80
2023-07-24T23:43:11.120Z,25.80
2023-07-24T23:45:37.514Z,25.80
2023-07-24T23:48:04.070Z,25.80
2023-07-24T23:50:30.561Z,25.78
2023-07-24T23:52:59.543Z,25.78
2023-07-24T23:55:26.405Z,25.77
2023-07-24T23:57:52.824Z,25.78
